Marsing, Idaho
Current Conditions -  °F | °C
As of 1:55 PM on Sunday 21 Dec 2014 (Local Time) from KEUL Reporting Station
Overcast Overcast  
Wind Chill: 41°   Ceiling: 3800
Heat Index: 46°   Visibility: 10mi
Dew Point: 39°   Wind: 12mph
Humidity: 76%   Direction: 260°W
Pressure: 29.99"   Gusts: 18mph
Location:  43.55°N, 116.81°W
Report Text: KEUL 212055Z AUTO 26010G16KT 10SM OVC038 08/04 A2999 RMK AO1 P0006 60014 52020
Loading
Personal Weather Stations






























Interactive Weather Map New forecast layout! Learn more

10-Day Weather Forecast

Advertisements
Track Severe Weather on mobile